createdAt,value
2019-01-31T00:03:29.329Z,-1.50
2019-01-31T00:06:10.258Z,-1.60
2019-01-31T00:08:51.194Z,-1.60
2019-01-31T00:11:31.942Z,-1.70
2019-01-31T00:14:12.924Z,-1.70
2019-01-31T00:16:54.001Z,-1.80
2019-01-31T00:19:34.547Z,-1.80
2019-01-31T00:22:15.296Z,-1.90
2019-01-31T00:24:56.231Z,-2.00
2019-01-31T00:27:37.233Z,-2.00
2019-01-31T00:30:18.168Z,-2.20
2019-01-31T00:32:58.878Z,-2.20
2019-01-31T00:35:42.312Z,-2.20
2019-01-31T00:38:23.348Z,-2.30
2019-01-31T00:41:04.329Z,-2.40
2019-01-31T00:43:45.180Z,-2.40
2019-01-31T00:46:26.156Z,-2.40
2019-01-31T00:49:07.392Z,-2.50
2019-01-31T00:51:48.165Z,-2.60
2019-01-31T00:54:28.872Z,-2.70
2019-01-31T00:57:11.287Z,-2.70
2019-01-31T00:59:51.846Z,-2.70
2019-01-31T01:02:32.564Z,-2.80
2019-01-31T01:05:13.612Z,-2.80
2019-01-31T01:08:20.888Z,-2.90
2019-01-31T01:11:28.154Z,-2.80
2019-01-31T01:14:08.673Z,-2.70
2019-01-31T01:16:49.825Z,-2.70
2019-01-31T01:19:57.187Z,-2.70
2019-01-31T01:22:47.984Z,-2.80
2019-01-31T01:25:29.114Z,-2.80
2019-01-31T01:28:09.844Z,-2.90
2019-01-31T01:30:50.862Z,-2.80
2019-01-31T01:33:31.581Z,-2.80
2019-01-31T01:36:12.326Z,-2.80
2019-01-31T01:38:53.386Z,-2.90
2019-01-31T01:42:00.660Z,-3.00
2019-01-31T01:45:07.980Z,-3.00
2019-01-31T01:47:49.236Z,-3.00
2019-01-31T01:50:30.218Z,-3.00
2019-01-31T01:53:11.012Z,-3.10
2019-01-31T01:55:51.771Z,-3.10
2019-01-31T01:58:32.649Z,-3.20
2019-01-31T02:01:13.819Z,-3.20
2019-01-31T02:03:54.553Z,-3.20
2019-01-31T02:07:01.870Z,-3.20
2019-01-31T02:09:43.201Z,-3.30
2019-01-31T02:12:24.086Z,-3.30
2019-01-31T02:15:05.210Z,-3.30
2019-01-31T02:17:46.579Z,-3.20
2019-01-31T02:23:06.484Z,-3.10
2019-01-31T02:25:47.354Z,-3.00
2019-01-31T02:28:28.259Z,-3.00
2019-01-31T02:31:08.972Z,-2.90
2019-01-31T02:33:50.178Z,-2.90
2019-01-31T02:36:31.038Z,-2.80
2019-01-31T02:39:11.818Z,-2.80
2019-01-31T02:41:53.761Z,-2.80
2019-01-31T02:44:44.765Z,-2.80
2019-01-31T02:47:26.111Z,-2.80
2019-01-31T02:50:06.759Z,-2.70
2019-01-31T02:52:47.571Z,-2.70
2019-01-31T02:55:28.168Z,-2.60
2019-01-31T02:58:09.005Z,-2.60
2019-01-31T03:00:50.036Z,-2.60
2019-01-31T03:03:30.772Z,-2.60
2019-01-31T03:06:11.328Z,-2.50
2019-01-31T03:08:52.511Z,-2.50
2019-01-31T03:11:33.833Z,-2.40
2019-01-31T03:14:14.776Z,-2.40
2019-01-31T03:16:56.124Z,-2.40
2019-01-31T03:19:37.021Z,-2.30
2019-01-31T03:22:17.822Z,-2.30
2019-01-31T03:24:58.957Z,-2.30
2019-01-31T03:27:40.289Z,-2.30
2019-01-31T03:30:47.605Z,-2.20
2019-01-31T03:33:54.943Z,-2.20
2019-01-31T03:36:35.444Z,-2.20
2019-01-31T03:39:16.308Z,-2.10
2019-01-31T03:41:57.266Z,-2.10
2019-01-31T03:44:38.323Z,-2.10
2019-01-31T03:47:19.308Z,-2.10
2019-01-31T03:50:00.481Z,-2.10
2019-01-31T03:52:41.560Z,-2.10
2019-01-31T03:55:22.296Z,-2.00
2019-01-31T03:58:05.813Z,-2.00
2019-01-31T04:00:46.316Z,-2.00
2019-01-31T04:03:27.415Z,-2.00
2019-01-31T04:06:08.501Z,-2.00
2019-01-31T04:08:49.628Z,-2.00
2019-01-31T04:11:30.316Z,-2.00
2019-01-31T04:14:09.896Z,-1.90
2019-01-31T04:16:51.115Z,-1.80
2019-01-31T04:19:31.918Z,-1.70
2019-01-31T04:22:13.221Z,-1.70
2019-01-31T04:24:54.375Z,-1.70
2019-01-31T04:27:35.350Z,-1.70
2019-01-31T04:30:16.306Z,-1.60
2019-01-31T04:35:39.266Z,-1.60
2019-01-31T04:38:20.167Z,-1.60
2019-01-31T04:41:01.130Z,-1.60
2019-01-31T04:43:42.403Z,-1.60
2019-01-31T04:46:23.580Z,-1.60
2019-01-31T04:49:05.026Z,-1.60
2019-01-31T04:51:47.087Z,-1.60
2019-01-31T04:57:06.690Z,-1.60
2019-01-31T04:59:35.851Z,-1.60
2019-01-31T05:02:24.082Z,-1.60
2019-01-31T05:05:12.252Z,-1.60
2019-01-31T05:07:53.346Z,-1.60
2019-01-31T05:10:42.741Z,-1.50
2019-01-31T05:13:16.811Z,-1.50
2019-01-31T05:15:56.683Z,-1.60
2019-01-31T05:18:38.129Z,-1.50
2019-01-31T05:21:20.981Z,-1.60
2019-01-31T05:24:01.619Z,-1.60
2019-01-31T05:26:42.432Z,-1.60
2019-01-31T05:29:23.509Z,-1.60
2019-01-31T05:32:04.713Z,-1.60
2019-01-31T05:34:45.996Z,-1.60
2019-01-31T05:40:10.033Z,-1.60
2019-01-31T05:42:50.696Z,-1.60
2019-01-31T05:45:31.210Z,-1.60
2019-01-31T05:48:12.797Z,-1.70
2019-01-31T05:50:52.361Z,-1.70
2019-01-31T05:53:33.719Z,-1.80
2019-01-31T05:56:15.120Z,-1.80
2019-01-31T05:58:56.061Z,-1.80
2019-01-31T06:01:36.471Z,-1.80
2019-01-31T06:06:56.292Z,-1.80
2019-01-31T06:09:25.340Z,-1.70
2019-01-31T06:12:13.610Z,-1.70
2019-01-31T06:15:02.095Z,-1.70
2019-01-31T06:17:31.171Z,-1.60
2019-01-31T06:20:20.753Z,-1.60
2019-01-31T06:23:02.042Z,-1.60
2019-01-31T06:25:42.943Z,-1.50
2019-01-31T06:28:24.373Z,-1.50
2019-01-31T06:31:05.317Z,-1.50
2019-01-31T06:33:46.634Z,-1.40
2019-01-31T06:36:27.668Z,-1.50
2019-01-31T06:38:56.759Z,-1.40
2019-01-31T06:41:25.868Z,-1.30
2019-01-31T06:44:14.239Z,-1.30
2019-01-31T06:47:02.475Z,-1.40
2019-01-31T06:49:42.903Z,-1.30
2019-01-31T06:52:23.946Z,-1.30
2019-01-31T06:55:04.537Z,-1.30
2019-01-31T06:57:45.546Z,-1.30
2019-01-31T07:00:26.712Z,-1.30
2019-01-31T07:03:07.398Z,-1.20
2019-01-31T07:05:48.523Z,-1.20
2019-01-31T07:08:29.809Z,-1.20
2019-01-31T07:11:11.212Z,-1.20
2019-01-31T07:13:51.701Z,-1.20
2019-01-31T07:16:36.094Z,-1.10
2019-01-31T07:19:17.001Z,-1.10
2019-01-31T07:21:57.657Z,-1.20
2019-01-31T07:27:21.462Z,-1.20
2019-01-31T07:30:02.199Z,-1.20
2019-01-31T07:32:43.083Z,-1.20
2019-01-31T07:35:24.076Z,-1.20
2019-01-31T07:38:05.719Z,-1.10
2019-01-31T07:40:47.105Z,-1.10
2019-01-31T07:43:28.023Z,-1.10
2019-01-31T07:46:08.901Z,-1.00
2019-01-31T07:51:32.040Z,-1.00
2019-01-31T07:54:12.900Z,-1.00
2019-01-31T07:56:53.774Z,-1.00
2019-01-31T07:59:39.192Z,-1.00
2019-01-31T08:02:20.141Z,-0.90
2019-01-31T08:05:01.419Z,-0.90
2019-01-31T08:07:42.954Z,-0.80
2019-01-31T08:10:23.313Z,-0.90
2019-01-31T08:13:03.858Z,-0.80
2019-01-31T08:15:44.645Z,-0.80
2019-01-31T08:18:25.735Z,-0.80
2019-01-31T08:21:06.975Z,-0.80
2019-01-31T08:23:48.022Z,-0.70
2019-01-31T08:26:28.864Z,-0.70
2019-01-31T08:29:09.652Z,-0.60
2019-01-31T08:31:50.634Z,-0.50
2019-01-31T08:34:31.291Z,-0.40
2019-01-31T08:37:11.986Z,-0.30
2019-01-31T08:39:53.072Z,-0.20
2019-01-31T08:42:34.133Z,-0.10
2019-01-31T08:45:15.443Z,-0.10
2019-01-31T08:47:56.679Z,0.00
2019-01-31T08:50:37.971Z,0.00
2019-01-31T08:53:19.140Z,0.10
2019-01-31T08:55:59.749Z,0.10
2019-01-31T08:58:40.712Z,0.20
2019-01-31T09:01:21.855Z,0.20
2019-01-31T09:04:02.612Z,0.30
2019-01-31T09:06:46.696Z,0.40
2019-01-31T09:12:14.926Z,0.60
2019-01-31T09:14:49.505Z,0.70
2019-01-31T09:17:33.427Z,0.70
2019-01-31T09:20:13.909Z,0.80
2019-01-31T09:22:57.721Z,0.80
2019-01-31T09:28:17.602Z,1.00
2019-01-31T09:30:58.953Z,1.10
2019-01-31T09:33:39.820Z,1.10
2019-01-31T09:36:34.329Z,1.20
2019-01-31T09:39:15.117Z,1.20
2019-01-31T09:41:55.948Z,1.20
2019-01-31T09:44:36.832Z,1.30
2019-01-31T09:50:02.864Z,1.40
2019-01-31T09:52:44.074Z,1.40
2019-01-31T09:55:25.125Z,1.50
2019-01-31T09:58:06.537Z,1.50
2019-01-31T10:00:47.497Z,1.60
2019-01-31T10:03:27.224Z,1.60
2019-01-31T10:06:08.773Z,1.70
2019-01-31T10:08:49.808Z,1.80
2019-01-31T10:11:30.732Z,1.90
2019-01-31T10:14:11.593Z,1.90
2019-01-31T10:16:53.522Z,2.10
2019-01-31T10:20:01.102Z,2.20
2019-01-31T10:22:41.656Z,2.30
2019-01-31T10:25:22.448Z,2.40
2019-01-31T10:28:03.348Z,2.50
2019-01-31T10:30:44.141Z,2.50
2019-01-31T10:33:24.961Z,2.60
2019-01-31T10:36:05.947Z,2.70
2019-01-31T10:38:46.766Z,2.80
2019-01-31T10:41:27.725Z,3.00
2019-01-31T10:44:08.590Z,3.10
2019-01-31T10:46:49.609Z,3.20
2019-01-31T10:49:30.760Z,3.30
2019-01-31T10:52:11.710Z,3.40
2019-01-31T10:54:52.587Z,3.40
2019-01-31T10:57:33.950Z,3.40
2019-01-31T11:00:20.251Z,3.30
2019-01-31T11:03:01.168Z,3.40
2019-01-31T11:05:41.757Z,3.30
2019-01-31T11:08:22.777Z,3.30
2019-01-31T11:11:03.662Z,3.30
2019-01-31T11:13:44.633Z,3.40
2019-01-31T11:16:25.608Z,3.50
2019-01-31T11:19:12.596Z,3.50
2019-01-31T11:21:49.290Z,3.50
2019-01-31T11:24:30.455Z,3.50
2019-01-31T11:27:11.320Z,3.50
2019-01-31T11:29:52.160Z,3.50
2019-01-31T11:32:33.100Z,3.40
2019-01-31T11:35:40.485Z,3.30
2019-01-31T11:38:21.553Z,3.30
2019-01-31T11:41:02.136Z,3.30
2019-01-31T11:43:42.843Z,3.30
2019-01-31T11:46:23.805Z,3.30
2019-01-31T11:49:04.754Z,3.30
2019-01-31T11:51:45.361Z,3.40
2019-01-31T11:54:26.329Z,3.40
2019-01-31T11:57:07.290Z,3.30
2019-01-31T11:59:47.980Z,3.30
2019-01-31T12:02:28.796Z,3.30
2019-01-31T12:05:09.423Z,3.30
2019-01-31T12:07:50.393Z,3.30
2019-01-31T12:10:32.086Z,3.40
2019-01-31T12:13:22.800Z,3.50
2019-01-31T12:15:55.441Z,3.50
2019-01-31T12:18:36.222Z,3.60
2019-01-31T12:21:05.295Z,3.70
2019-01-31T12:23:53.491Z,4.10
2019-01-31T12:26:34.617Z,4.30
2019-01-31T12:29:15.427Z,4.50
2019-01-31T12:31:56.219Z,4.60
2019-01-31T12:34:37.404Z,4.70
2019-01-31T12:37:18.021Z,4.70
2019-01-31T12:39:58.931Z,4.90
2019-01-31T12:42:40.253Z,5.00
2019-01-31T12:45:20.791Z,4.90
2019-01-31T12:48:01.917Z,4.90
2019-01-31T12:50:42.691Z,5.20
2019-01-31T12:53:24.652Z,5.40
2019-01-31T12:56:05.416Z,5.50
2019-01-31T12:58:46.527Z,5.60
2019-01-31T13:01:27.517Z,5.70
2019-01-31T13:04:08.317Z,5.70
2019-01-31T13:06:49.039Z,5.70
2019-01-31T13:09:29.788Z,5.80
2019-01-31T13:12:10.661Z,5.90
2019-01-31T13:14:51.487Z,6.10
2019-01-31T13:17:32.374Z,6.10
2019-01-31T13:20:13.671Z,6.20
2019-01-31T13:22:55.055Z,6.30
2019-01-31T13:25:35.867Z,6.30
2019-01-31T13:28:16.980Z,6.30
2019-01-31T13:30:57.703Z,6.10
2019-01-31T13:33:38.497Z,6.00
2019-01-31T13:36:19.372Z,6.00
2019-01-31T13:39:00.304Z,6.00
2019-01-31T13:41:41.970Z,6.20
2019-01-31T13:44:23.184Z,6.40
2019-01-31T13:47:03.850Z,6.60
2019-01-31T13:49:44.700Z,6.70
2019-01-31T13:52:25.286Z,6.90
2019-01-31T13:55:06.012Z,7.00
2019-01-31T13:57:46.837Z,7.10
2019-01-31T14:00:16.525Z,7.10
2019-01-31T14:03:04.985Z,7.40
2019-01-31T14:05:45.565Z,7.50
2019-01-31T14:08:26.788Z,7.60
2019-01-31T14:11:07.598Z,7.70
2019-01-31T14:13:48.432Z,7.50
2019-01-31T14:16:29.309Z,7.40
2019-01-31T14:19:10.017Z,7.30
2019-01-31T14:21:50.686Z,7.20
2019-01-31T14:24:31.709Z,7.10
2019-01-31T14:27:13.049Z,6.80
2019-01-31T14:29:53.552Z,6.60
2019-01-31T14:32:34.924Z,6.60
2019-01-31T14:35:15.484Z,6.60
2019-01-31T14:37:56.867Z,6.50
2019-01-31T14:40:38.204Z,6.40
2019-01-31T14:43:19.126Z,6.40
2019-01-31T14:46:00.171Z,6.40
2019-01-31T14:48:41.160Z,6.30
2019-01-31T14:51:21.736Z,6.20
2019-01-31T14:54:02.536Z,6.10
2019-01-31T14:56:43.420Z,6.10
2019-01-31T14:59:25.320Z,6.00
2019-01-31T15:02:06.461Z,5.90
2019-01-31T15:04:47.274Z,5.80
2019-01-31T15:07:28.093Z,5.60
2019-01-31T15:10:08.949Z,5.60
2019-01-31T15:12:49.802Z,5.50
2019-01-31T15:15:30.595Z,5.40
2019-01-31T15:18:11.892Z,5.10
2019-01-31T15:20:52.897Z,5.10
2019-01-31T15:23:33.673Z,5.10
2019-01-31T15:26:14.437Z,5.30
2019-01-31T15:28:55.400Z,5.20
2019-01-31T15:31:36.406Z,5.00
2019-01-31T15:34:17.333Z,4.70
2019-01-31T15:36:58.028Z,4.50
2019-01-31T15:39:38.998Z,4.50
2019-01-31T15:42:19.974Z,4.40
2019-01-31T15:45:01.019Z,4.30
2019-01-31T15:47:41.680Z,4.20
2019-01-31T15:50:22.397Z,4.10
2019-01-31T15:53:03.071Z,4.10
2019-01-31T15:55:44.115Z,4.00
2019-01-31T15:58:25.334Z,3.80
2019-01-31T16:01:06.325Z,3.80
2019-01-31T16:03:46.850Z,3.70
2019-01-31T16:06:27.524Z,3.60
2019-01-31T16:09:08.385Z,3.60
2019-01-31T16:11:49.060Z,3.60
2019-01-31T16:14:29.723Z,3.60
2019-01-31T16:17:10.614Z,3.60
2019-01-31T16:19:51.465Z,3.50
2019-01-31T16:22:32.953Z,3.50
2019-01-31T16:25:13.932Z,3.40
2019-01-31T16:27:54.523Z,3.30
2019-01-31T16:30:35.255Z,3.30
2019-01-31T16:33:16.105Z,3.30
2019-01-31T16:35:56.710Z,3.40
2019-01-31T16:38:37.711Z,3.30
2019-01-31T16:41:18.697Z,3.30
2019-01-31T16:43:59.500Z,3.30
2019-01-31T16:46:40.158Z,3.20
2019-01-31T16:49:21.031Z,3.20
2019-01-31T16:52:01.992Z,3.10
2019-01-31T16:54:42.831Z,3.10
2019-01-31T16:57:23.956Z,3.20
2019-01-31T17:00:04.603Z,3.30
2019-01-31T17:02:45.299Z,3.40
2019-01-31T17:05:26.124Z,3.40
2019-01-31T17:08:07.009Z,3.30
2019-01-31T17:10:47.508Z,3.30
2019-01-31T17:13:28.700Z,3.30
2019-01-31T17:16:09.474Z,3.30
2019-01-31T17:18:50.573Z,3.40
2019-01-31T17:21:31.418Z,3.50
2019-01-31T17:24:12.198Z,3.50
2019-01-31T17:26:52.733Z,3.50
2019-01-31T17:29:33.629Z,3.50
2019-01-31T17:32:14.547Z,3.50
2019-01-31T17:34:55.647Z,3.40
2019-01-31T17:37:36.219Z,3.40
2019-01-31T17:40:17.162Z,3.40
2019-01-31T17:42:58.244Z,3.40
2019-01-31T17:45:39.254Z,3.40
2019-01-31T17:48:20.159Z,3.40
2019-01-31T17:51:01.290Z,3.40
2019-01-31T17:53:41.822Z,3.50
2019-01-31T17:56:22.329Z,3.50
2019-01-31T17:59:02.929Z,3.60
2019-01-31T18:01:44.032Z,3.60
2019-01-31T18:04:24.857Z,3.70
2019-01-31T18:07:05.678Z,3.70
2019-01-31T18:09:46.673Z,3.70
2019-01-31T18:12:27.501Z,3.80
2019-01-31T18:15:08.140Z,4.20
2019-01-31T18:17:49.138Z,4.40
2019-01-31T18:20:29.737Z,4.40
2019-01-31T18:26:05.969Z,4.60
2019-01-31T18:28:54.161Z,4.70
2019-01-31T18:31:42.327Z,4.70
2019-01-31T18:34:23.284Z,4.50
2019-01-31T18:37:04.286Z,4.70
2019-01-31T18:39:45.083Z,4.80
2019-01-31T18:42:26.222Z,4.90
2019-01-31T18:45:07.174Z,4.80
2019-01-31T18:47:47.834Z,4.60
2019-01-31T18:50:28.609Z,4.60
2019-01-31T18:53:08.980Z,4.50
2019-01-31T18:55:38.062Z,4.50
2019-01-31T18:58:26.216Z,4.90
2019-01-31T19:01:14.364Z,5.20
2019-01-31T19:03:55.529Z,5.40
2019-01-31T19:06:36.200Z,5.50
2019-01-31T19:09:17.052Z,5.80
2019-01-31T19:11:57.480Z,5.90
2019-01-31T19:14:26.548Z,5.90
2019-01-31T19:17:14.756Z,5.90
2019-01-31T19:20:02.932Z,5.90
2019-01-31T19:22:44.000Z,6.10
2019-01-31T19:25:24.525Z,6.30
2019-01-31T19:28:05.427Z,6.30
2019-01-31T19:30:39.120Z,6.20
2019-01-31T19:33:27.300Z,6.10
2019-01-31T19:36:07.884Z,6.00
2019-01-31T19:38:48.318Z,6.00
2019-01-31T19:41:29.464Z,6.00
2019-01-31T19:44:10.229Z,6.00
2019-01-31T19:46:50.941Z,6.10
2019-01-31T19:49:32.137Z,6.10
2019-01-31T19:52:13.274Z,6.10
2019-01-31T19:54:42.317Z,6.10
2019-01-31T19:57:30.504Z,6.20
2019-01-31T20:03:21.461Z,6.30
2019-01-31T20:06:01.945Z,6.30
2019-01-31T20:08:42.649Z,6.40
2019-01-31T20:11:23.661Z,6.40
2019-01-31T20:14:05.098Z,6.50
2019-01-31T20:16:45.892Z,6.50
2019-01-31T20:19:26.600Z,6.40
2019-01-31T20:22:07.249Z,6.50
2019-01-31T20:24:47.883Z,6.50
2019-01-31T20:27:29.061Z,6.60
2019-01-31T20:30:09.659Z,6.40
2019-01-31T20:32:50.564Z,6.40
2019-01-31T20:35:31.347Z,6.50
2019-01-31T20:38:12.382Z,6.50
2019-01-31T20:40:53.120Z,6.60
2019-01-31T20:43:33.822Z,6.60
2019-01-31T20:46:15.005Z,6.60
2019-01-31T20:48:55.589Z,6.50
2019-01-31T20:51:36.177Z,6.50
2019-01-31T20:54:16.663Z,6.60
2019-01-31T20:56:57.490Z,6.70
2019-01-31T20:59:38.598Z,6.70
2019-01-31T21:02:21.814Z,6.40
2019-01-31T21:05:02.323Z,6.30
2019-01-31T21:07:43.592Z,6.20
2019-01-31T21:13:25.745Z,6.30
2019-01-31T21:16:06.508Z,6.30
2019-01-31T21:18:47.376Z,6.40
2019-01-31T21:21:28.183Z,6.50
2019-01-31T21:24:08.893Z,6.70
2019-01-31T21:26:49.763Z,6.90
2019-01-31T21:29:30.645Z,6.90
2019-01-31T21:32:11.456Z,7.00
2019-01-31T21:34:52.486Z,7.10
2019-01-31T21:37:33.161Z,7.10
2019-01-31T21:40:14.329Z,7.10
2019-01-31T21:42:55.338Z,7.00
2019-01-31T21:45:36.072Z,7.00
2019-01-31T21:48:18.047Z,6.80
2019-01-31T21:50:59.391Z,6.70
2019-01-31T21:53:40.198Z,6.70
2019-01-31T21:56:20.700Z,6.80
2019-01-31T21:58:49.834Z,7.00
2019-01-31T22:01:38.059Z,7.10
2019-01-31T22:04:18.502Z,7.20
2019-01-31T22:06:59.565Z,7.10
2019-01-31T22:09:40.418Z,7.10
2019-01-31T22:12:21.048Z,7.10
2019-01-31T22:14:50.096Z,7.20
2019-01-31T22:17:38.283Z,7.30
2019-01-31T22:20:26.537Z,7.30
2019-01-31T22:23:14.782Z,7.30
2019-01-31T22:25:56.097Z,7.30
2019-01-31T22:28:36.885Z,7.20
2019-01-31T22:31:17.758Z,7.10
2019-01-31T22:33:58.571Z,7.20
2019-01-31T22:36:39.607Z,7.20
2019-01-31T22:39:20.084Z,7.30
2019-01-31T22:42:01.209Z,7.40
2019-01-31T22:44:42.545Z,7.50
2019-01-31T22:47:26.254Z,7.50
2019-01-31T22:50:05.850Z,7.50
2019-01-31T22:52:46.696Z,7.70
2019-01-31T22:55:27.725Z,7.70
2019-01-31T22:58:08.620Z,7.60
2019-01-31T23:03:54.147Z,7.80
2019-01-31T23:06:34.930Z,7.90
2019-01-31T23:09:15.661Z,8.00
2019-01-31T23:11:56.226Z,8.00
2019-01-31T23:14:37.447Z,7.90
2019-01-31T23:17:18.224Z,7.90
2019-01-31T23:19:59.012Z,8.00
2019-01-31T23:22:39.860Z,8.10
2019-01-31T23:25:20.880Z,8.10
2019-01-31T23:28:01.888Z,8.20
2019-01-31T23:30:42.604Z,8.20
2019-01-31T23:33:23.676Z,8.20
2019-01-31T23:36:04.414Z,8.20
2019-01-31T23:38:45.279Z,8.20
2019-01-31T23:41:26.034Z,8.20
2019-01-31T23:44:06.820Z,8.30
2019-01-31T23:46:47.625Z,8.40
2019-01-31T23:49:28.491Z,8.30
2019-01-31T23:52:09.390Z,8.40
2019-01-31T23:54:50.310Z,8.50
2019-01-31T23:57:31.029Z,8.40
